createdAt,value
2017-08-30T00:00:35.002Z,45.30
2017-08-30T00:03:02.816Z,45.50
2017-08-30T00:05:30.607Z,45.50
2017-08-30T00:07:58.387Z,45.60
2017-08-30T00:10:26.156Z,45.80
2017-08-30T00:12:54.039Z,45.90
2017-08-30T00:15:21.817Z,45.90
2017-08-30T00:17:49.597Z,46.20
2017-08-30T00:20:17.467Z,46.40
2017-08-30T00:22:45.236Z,46.80
2017-08-30T00:38:44.679Z,45.90
2017-08-30T00:41:12.492Z,46.50
2017-08-30T00:43:40.276Z,47.00
2017-08-30T00:46:08.165Z,47.20
2017-08-30T00:48:35.965Z,47.50
2017-08-30T00:51:03.766Z,47.70
2017-08-30T00:53:31.574Z,48.20
2017-08-30T00:55:59.402Z,47.90
2017-08-30T00:58:27.186Z,46.90
2017-08-30T01:00:54.995Z,46.80
2017-08-30T01:03:22.769Z,47.00
2017-08-30T01:05:50.566Z,47.20
2017-08-30T01:08:18.354Z,47.30
2017-08-30T01:10:46.138Z,47.40
2017-08-30T01:13:13.920Z,46.90
2017-08-30T01:15:41.722Z,46.90
2017-08-30T01:18:09.522Z,47.00
2017-08-30T01:20:37.322Z,46.80
2017-08-30T01:23:05.128Z,47.00
2017-08-30T01:25:32.927Z,47.50
2017-08-30T01:28:00.692Z,47.70
2017-08-30T01:30:28.519Z,47.90
2017-08-30T01:32:56.324Z,48.40
2017-08-30T01:35:24.140Z,48.80
2017-08-30T01:37:52.016Z,49.10
2017-08-30T01:40:19.814Z,49.30
2017-08-30T01:42:47.580Z,49.70
2017-08-30T01:45:15.388Z,49.80
2017-08-30T01:47:43.874Z,50.10
2017-08-30T01:50:11.670Z,50.10
2017-08-30T01:52:39.469Z,50.10
2017-08-30T01:55:07.257Z,50.30
2017-08-30T01:57:35.108Z,49.90
2017-08-30T02:00:02.967Z,49.50
2017-08-30T02:02:30.836Z,49.40
2017-08-30T02:04:58.688Z,49.10
2017-08-30T02:07:26.501Z,48.90
2017-08-30T02:09:54.434Z,49.30
2017-08-30T02:12:22.340Z,49.80
2017-08-30T02:14:50.161Z,49.00
2017-08-30T02:17:17.962Z,48.30
2017-08-30T02:19:45.769Z,48.20
2017-08-30T02:22:13.563Z,47.80
2017-08-30T02:24:41.371Z,47.80
2017-08-30T02:27:09.176Z,48.60
2017-08-30T02:29:37.054Z,47.50
2017-08-30T02:32:04.884Z,47.40
2017-08-30T02:34:32.684Z,46.00
2017-08-30T02:37:00.528Z,46.60
2017-08-30T02:39:28.398Z,47.00
2017-08-30T02:41:56.203Z,47.40
2017-08-30T02:44:24.043Z,47.50
2017-08-30T02:46:51.887Z,47.70
2017-08-30T02:49:19.691Z,47.90
2017-08-30T02:51:47.507Z,48.40
2017-08-30T02:54:15.357Z,48.60
2017-08-30T02:56:43.211Z,49.00
2017-08-30T02:59:11.066Z,48.90
2017-08-30T03:01:38.899Z,48.90
2017-08-30T03:04:06.721Z,49.30
2017-08-30T03:06:34.546Z,49.50
2017-08-30T03:09:02.376Z,49.70
2017-08-30T03:11:30.214Z,49.90
2017-08-30T03:13:58.075Z,50.10
2017-08-30T03:16:25.903Z,50.50
2017-08-30T03:18:53.718Z,50.00
2017-08-30T03:21:21.496Z,50.20
2017-08-30T03:23:49.297Z,49.70
2017-08-30T03:26:17.128Z,49.70
2017-08-30T03:28:44.913Z,50.00
2017-08-30T03:31:12.755Z,49.80
2017-08-30T03:33:40.576Z,50.00
2017-08-30T03:36:08.388Z,50.20
2017-08-30T03:38:36.255Z,50.40
2017-08-30T03:41:04.040Z,50.60
2017-08-30T03:43:31.880Z,50.60
2017-08-30T03:45:59.711Z,50.80
2017-08-30T03:48:27.511Z,51.00
2017-08-30T03:50:55.368Z,51.30
2017-08-30T03:53:23.223Z,51.60
2017-08-30T03:55:51.074Z,51.60
2017-08-30T03:58:18.982Z,51.90
2017-08-30T04:00:46.856Z,52.00
2017-08-30T04:03:14.677Z,51.60
2017-08-30T04:05:42.490Z,51.20
2017-08-30T04:08:10.344Z,51.10
2017-08-30T04:10:38.224Z,51.10
2017-08-30T04:13:06.054Z,51.00
2017-08-30T04:15:33.882Z,50.90
2017-08-30T04:18:01.707Z,50.90
2017-08-30T04:20:29.568Z,50.90
2017-08-30T04:22:57.398Z,50.80
2017-08-30T04:25:25.254Z,50.80
2017-08-30T04:27:53.118Z,50.80
2017-08-30T04:30:20.946Z,50.50
2017-08-30T04:32:48.748Z,50.80
2017-08-30T04:35:16.576Z,50.80
2017-08-30T04:37:44.433Z,51.20
2017-08-30T04:40:12.293Z,50.50
2017-08-30T04:42:40.145Z,50.70
2017-08-30T04:45:07.933Z,51.00
2017-08-30T04:47:35.732Z,51.10
2017-08-30T04:50:03.562Z,51.20
2017-08-30T04:52:31.446Z,51.50
2017-08-30T04:54:59.310Z,51.50
2017-08-30T04:57:27.105Z,51.60
2017-08-30T04:59:55.000Z,52.40
2017-08-30T05:02:22.846Z,51.60
2017-08-30T05:04:50.685Z,51.50
2017-08-30T05:07:18.544Z,51.50
2017-08-30T05:09:47.138Z,51.50
2017-08-30T05:12:14.956Z,51.50
2017-08-30T05:14:42.740Z,51.20
2017-08-30T05:17:10.590Z,51.30
2017-08-30T05:19:38.457Z,51.20
2017-08-30T05:22:06.336Z,51.20
2017-08-30T05:24:34.232Z,51.40
2017-08-30T05:27:02.020Z,51.30
2017-08-30T05:29:29.859Z,51.70
2017-08-30T05:31:57.742Z,51.80
2017-08-30T05:34:25.555Z,51.70
2017-08-30T05:36:53.510Z,51.30
2017-08-30T05:39:21.340Z,51.30
2017-08-30T05:41:49.176Z,51.30
2017-08-30T05:44:16.977Z,51.40
2017-08-30T05:46:44.787Z,51.30
2017-08-30T05:49:12.677Z,51.20
2017-08-30T05:51:40.503Z,51.20
2017-08-30T05:54:08.375Z,51.20
2017-08-30T05:56:36.241Z,51.00
2017-08-30T05:59:04.076Z,51.40
2017-08-30T06:01:31.897Z,53.50
2017-08-30T06:03:59.722Z,50.30
2017-08-30T06:06:27.570Z,50.00
2017-08-30T06:08:55.400Z,50.20
2017-08-30T06:11:23.219Z,50.10
2017-08-30T06:13:51.037Z,50.40
2017-08-30T06:16:18.863Z,50.70
2017-08-30T06:18:46.631Z,50.40
2017-08-30T06:21:14.440Z,50.30
2017-08-30T06:23:42.246Z,50.50
2017-08-30T06:26:10.096Z,50.40
2017-08-30T06:28:37.803Z,50.30
2017-08-30T06:31:05.635Z,50.50
2017-08-30T06:33:33.456Z,50.30
2017-08-30T06:36:01.386Z,49.60
2017-08-30T06:38:29.239Z,49.30
2017-08-30T06:40:57.028Z,50.10
2017-08-30T06:43:24.855Z,50.00
2017-08-30T06:45:52.749Z,49.20
2017-08-30T06:48:20.555Z,49.20
2017-08-30T06:50:48.303Z,48.50
2017-08-30T06:53:16.023Z,48.80
2017-08-30T06:55:43.839Z,49.40
2017-08-30T06:58:11.674Z,49.40
2017-08-30T07:00:39.492Z,49.00
2017-08-30T07:03:07.388Z,49.90
2017-08-30T07:05:35.108Z,49.30
2017-08-30T07:08:02.910Z,49.30
2017-08-30T07:10:30.649Z,48.80
2017-08-30T07:12:58.415Z,49.00
2017-08-30T07:15:26.196Z,48.80
2017-08-30T07:17:53.936Z,48.20
2017-08-30T07:20:21.658Z,48.20
2017-08-30T07:22:49.388Z,47.70
2017-08-30T07:25:17.129Z,47.50
2017-08-30T07:27:44.858Z,47.60
2017-08-30T07:30:12.595Z,47.20
2017-08-30T07:32:40.416Z,47.40
2017-08-30T07:35:08.170Z,47.10
2017-08-30T07:37:35.894Z,47.00
2017-08-30T07:40:03.709Z,46.80
2017-08-30T07:42:31.476Z,47.00
2017-08-30T07:44:59.258Z,45.90
2017-08-30T07:47:27.130Z,46.70
2017-08-30T07:49:54.907Z,43.40
2017-08-30T07:52:22.624Z,46.70
2017-08-30T07:54:50.429Z,43.40
2017-08-30T07:57:18.199Z,43.60
2017-08-30T07:59:45.978Z,49.00
2017-08-30T08:02:13.787Z,48.50
2017-08-30T08:04:41.508Z,42.70
2017-08-30T08:07:09.325Z,48.20
2017-08-30T08:09:37.082Z,42.20
2017-08-30T08:14:37.603Z,47.30
2017-08-30T08:17:05.338Z,47.40
2017-08-30T08:19:33.004Z,43.30
2017-08-30T08:22:00.700Z,43.30
2017-08-30T08:24:28.444Z,41.50
2017-08-30T08:26:56.208Z,46.60
2017-08-30T08:29:24.752Z,45.10
2017-08-30T08:31:52.465Z,46.40
2017-08-30T08:34:20.188Z,42.50
2017-08-30T08:36:47.945Z,45.50
2017-08-30T08:39:15.637Z,45.30
2017-08-30T08:41:43.331Z,36.80
2017-08-30T08:44:11.079Z,40.30
2017-08-30T08:46:38.796Z,42.00
2017-08-30T08:49:06.474Z,42.10
2017-08-30T08:51:34.235Z,45.40
2017-08-30T08:54:01.964Z,44.80
2017-08-30T08:56:29.634Z,45.50
2017-08-30T08:58:57.390Z,37.40
2017-08-30T09:01:25.056Z,45.50
2017-08-30T09:03:52.716Z,41.90
2017-08-30T09:06:20.410Z,44.90
2017-08-30T09:08:48.071Z,44.50
2017-08-30T09:11:15.823Z,44.50
2017-08-30T09:13:43.589Z,44.60
2017-08-30T09:16:11.362Z,45.00
2017-08-30T09:18:39.084Z,37.20
2017-08-30T09:21:06.773Z,44.30
2017-08-30T09:23:34.465Z,44.70
2017-08-30T09:26:02.210Z,37.60
2017-08-30T09:28:29.958Z,38.80
2017-08-30T09:30:57.702Z,44.40
2017-08-30T09:33:25.364Z,44.40
2017-08-30T09:35:53.186Z,43.80
2017-08-30T09:38:20.932Z,44.20
2017-08-30T09:40:48.625Z,44.00
2017-08-30T09:43:16.308Z,44.30
2017-08-30T09:45:43.986Z,44.70
2017-08-30T09:48:11.644Z,42.00
2017-08-30T09:50:39.298Z,44.00
2017-08-30T09:53:07.020Z,44.00
2017-08-30T09:55:34.745Z,37.90
2017-08-30T09:58:02.437Z,37.10
2017-08-30T10:00:30.153Z,40.60
2017-08-30T10:02:57.885Z,43.90
2017-08-30T10:05:25.707Z,43.70
2017-08-30T10:07:53.460Z,41.00
2017-08-30T10:10:21.195Z,44.20
2017-08-30T10:12:48.877Z,44.50
2017-08-30T10:15:16.600Z,43.20
2017-08-30T10:17:44.275Z,43.70
2017-08-30T10:20:12.012Z,37.30
2017-08-30T10:22:39.753Z,42.20
2017-08-30T10:25:07.429Z,44.00
2017-08-30T10:27:35.109Z,44.00
2017-08-30T10:30:02.805Z,36.90
2017-08-30T10:32:30.529Z,44.50
2017-08-30T10:34:58.218Z,43.70
2017-08-30T10:37:25.952Z,43.70
2017-08-30T10:39:53.613Z,43.10
2017-08-30T10:42:21.381Z,38.50
2017-08-30T10:44:49.106Z,43.70
2017-08-30T10:47:16.760Z,44.00
2017-08-30T10:49:44.523Z,43.80
2017-08-30T10:52:12.254Z,43.40
2017-08-30T10:54:40.005Z,34.50
2017-08-30T10:57:07.685Z,35.30
2017-08-30T10:59:35.361Z,43.50
2017-08-30T11:02:03.028Z,39.10
2017-08-30T11:04:30.727Z,43.50
2017-08-30T11:06:58.446Z,41.50
2017-08-30T11:09:26.161Z,42.70
2017-08-30T11:11:53.928Z,43.70
2017-08-30T11:14:21.602Z,40.00
2017-08-30T11:16:49.347Z,43.60
2017-08-30T11:19:17.155Z,43.40
2017-08-30T11:21:44.877Z,42.20
2017-08-30T11:24:12.620Z,43.30
2017-08-30T11:26:40.315Z,37.40
2017-08-30T11:29:07.976Z,43.50
2017-08-30T11:31:35.657Z,43.40
2017-08-30T11:34:03.393Z,43.40
2017-08-30T11:36:31.141Z,43.40
2017-08-30T11:38:58.861Z,43.70
2017-08-30T11:41:26.681Z,43.50
2017-08-30T11:43:54.391Z,41.50
2017-08-30T11:46:22.132Z,43.40
2017-08-30T11:48:49.856Z,42.60
2017-08-30T11:51:17.580Z,43.40
2017-08-30T11:53:45.259Z,42.70
2017-08-30T11:56:12.976Z,43.90
2017-08-30T11:58:40.652Z,36.50
2017-08-30T12:01:08.372Z,43.00
2017-08-30T12:03:36.108Z,42.60
2017-08-30T12:06:03.833Z,42.40
2017-08-30T12:08:31.579Z,40.60
2017-08-30T12:10:59.270Z,43.60
2017-08-30T12:13:26.957Z,43.90
2017-08-30T12:15:54.708Z,43.20
2017-08-30T12:18:22.451Z,40.20
2017-08-30T12:20:50.120Z,43.60
2017-08-30T12:23:17.873Z,44.20
2017-08-30T12:25:45.549Z,41.00
2017-08-30T12:28:13.220Z,40.90
2017-08-30T12:30:40.938Z,42.60
2017-08-30T12:33:08.669Z,36.40
2017-08-30T12:35:36.384Z,43.80
2017-08-30T12:38:09.673Z,43.40
2017-08-30T12:40:37.389Z,43.90
2017-08-30T12:43:05.065Z,43.60
2017-08-30T12:45:32.817Z,43.20
2017-08-30T12:48:00.543Z,43.70
2017-08-30T12:50:28.265Z,43.50
2017-08-30T12:52:55.985Z,43.90
2017-08-30T12:55:23.654Z,43.50
2017-08-30T12:57:51.378Z,43.50
2017-08-30T13:00:19.188Z,43.30
2017-08-30T13:02:46.922Z,43.00
2017-08-30T13:05:14.672Z,43.30
2017-08-30T13:07:42.521Z,43.30
2017-08-30T13:10:10.266Z,43.40
2017-08-30T13:12:37.990Z,42.30
2017-08-30T13:15:05.657Z,43.60
2017-08-30T13:17:33.344Z,43.50
2017-08-30T13:20:01.088Z,41.70
2017-08-30T13:22:28.912Z,43.20
2017-08-30T13:24:56.652Z,42.60
2017-08-30T13:27:24.321Z,43.40
2017-08-30T13:29:51.992Z,43.50
2017-08-30T13:32:19.659Z,43.50
2017-08-30T13:34:47.377Z,43.40
2017-08-30T13:37:15.131Z,43.70
2017-08-30T13:39:42.806Z,43.50
2017-08-30T13:42:10.476Z,43.40
2017-08-30T13:44:38.193Z,43.50
2017-08-30T13:47:05.924Z,43.40
2017-08-30T13:49:33.679Z,43.30
2017-08-30T13:52:01.361Z,43.30
2017-08-30T13:54:29.049Z,43.50
2017-08-30T13:56:56.746Z,43.50
2017-08-30T13:59:24.464Z,43.40
2017-08-30T14:01:52.150Z,43.40
2017-08-30T14:04:19.821Z,43.50
2017-08-30T14:06:47.576Z,43.30
2017-08-30T14:09:15.257Z,40.70
2017-08-30T14:11:42.926Z,43.20
2017-08-30T14:14:10.700Z,43.20
2017-08-30T14:16:38.421Z,43.00
2017-08-30T14:19:06.167Z,43.20
2017-08-30T14:21:33.897Z,43.20
2017-08-30T14:24:01.628Z,43.30
2017-08-30T14:26:29.349Z,43.30
2017-08-30T14:28:57.133Z,43.30
2017-08-30T14:31:24.835Z,43.50
2017-08-30T14:33:52.546Z,41.40
2017-08-30T14:36:20.281Z,43.20
2017-08-30T14:38:48.001Z,43.20
2017-08-30T14:41:15.688Z,43.20
2017-08-30T14:43:43.512Z,42.30
2017-08-30T14:46:11.253Z,43.10
2017-08-30T14:48:38.916Z,43.30
2017-08-30T14:51:06.661Z,43.30
2017-08-30T14:53:34.417Z,43.40
2017-08-30T14:56:02.164Z,43.60
2017-08-30T14:58:29.906Z,43.40
2017-08-30T15:00:57.613Z,43.40
2017-08-30T15:03:25.371Z,43.40
2017-08-30T15:05:53.046Z,43.50
2017-08-30T15:08:20.703Z,43.50
2017-08-30T15:10:48.426Z,43.60
2017-08-30T15:13:16.195Z,43.70
2017-08-30T15:15:43.851Z,42.80
2017-08-30T15:18:11.531Z,43.40
2017-08-30T15:20:39.298Z,43.40
2017-08-30T15:23:06.963Z,42.80
2017-08-30T15:25:34.715Z,43.30
2017-08-30T15:28:02.498Z,43.20
2017-08-30T15:30:30.240Z,42.30
2017-08-30T15:32:57.964Z,43.20
2017-08-30T15:35:25.772Z,43.50
2017-08-30T15:37:53.592Z,43.30
2017-08-30T15:40:21.357Z,43.30
2017-08-30T15:42:49.137Z,43.40
2017-08-30T15:45:16.865Z,43.10
2017-08-30T15:47:44.581Z,42.70
2017-08-30T15:50:12.304Z,43.80
2017-08-30T15:52:40.097Z,43.40
2017-08-30T15:55:07.899Z,43.10
2017-08-30T15:57:35.636Z,41.80
2017-08-30T16:00:03.408Z,43.20
2017-08-30T16:02:31.130Z,42.80
2017-08-30T16:04:58.849Z,43.30
2017-08-30T16:07:26.638Z,43.20
2017-08-30T16:09:54.540Z,43.50
2017-08-30T16:12:22.413Z,43.30
2017-08-30T16:14:50.141Z,43.40
2017-08-30T16:17:17.912Z,43.50
2017-08-30T16:19:45.811Z,43.40
2017-08-30T16:22:13.588Z,43.50
2017-08-30T16:24:41.372Z,43.60
2017-08-30T16:27:09.155Z,42.80
2017-08-30T16:29:36.942Z,43.40
2017-08-30T16:32:04.716Z,43.40
2017-08-30T16:34:32.515Z,43.30
2017-08-30T16:37:00.279Z,43.40
2017-08-30T16:39:28.010Z,43.40
2017-08-30T16:41:55.823Z,43.50
2017-08-30T16:44:23.596Z,41.70
2017-08-30T16:46:51.326Z,41.70
2017-08-30T16:49:19.045Z,43.00
2017-08-30T16:51:46.774Z,43.10
2017-08-30T16:54:14.510Z,42.90
2017-08-30T16:56:42.281Z,43.00
2017-08-30T16:59:10.076Z,43.00
2017-08-30T17:01:37.804Z,43.00
2017-08-30T17:04:05.610Z,42.90
2017-08-30T17:06:33.393Z,42.70
2017-08-30T17:09:01.118Z,41.80
2017-08-30T17:11:29.036Z,42.30
2017-08-30T17:13:56.772Z,40.80
2017-08-30T17:16:24.538Z,40.40
2017-08-30T17:18:52.418Z,42.60
2017-08-30T17:21:20.208Z,42.80
2017-08-30T17:23:47.935Z,41.30
2017-08-30T17:26:15.758Z,41.80
2017-08-30T17:28:43.532Z,42.30
2017-08-30T17:31:11.361Z,41.60
2017-08-30T17:33:39.237Z,42.80
2017-08-30T17:36:07.044Z,41.50
2017-08-30T17:38:34.787Z,43.00
2017-08-30T17:41:02.518Z,42.70
2017-08-30T17:43:30.252Z,43.00
2017-08-30T17:45:58.023Z,43.00
2017-08-30T17:48:25.758Z,42.40
2017-08-30T17:50:53.542Z,43.00
2017-08-30T17:53:21.329Z,43.10
2017-08-30T17:55:49.229Z,43.20
2017-08-30T17:58:17.011Z,41.30
2017-08-30T18:00:44.830Z,42.90
2017-08-30T18:03:12.639Z,43.10
2017-08-30T18:05:40.452Z,42.90
2017-08-30T18:08:08.193Z,42.50
2017-08-30T18:10:35.943Z,43.00
2017-08-30T18:13:03.681Z,43.10
2017-08-30T18:15:31.426Z,43.10
2017-08-30T18:17:59.223Z,42.80
2017-08-30T18:20:26.937Z,42.40
2017-08-30T18:22:54.665Z,43.10
2017-08-30T18:25:22.495Z,42.80
2017-08-30T18:27:50.219Z,42.80
2017-08-30T18:30:17.947Z,42.80
2017-08-30T18:32:45.672Z,43.00
2017-08-30T18:35:13.479Z,42.90
2017-08-30T18:37:41.201Z,43.00
2017-08-30T18:40:09.019Z,42.90
2017-08-30T18:42:36.806Z,41.50
2017-08-30T18:45:04.550Z,42.90
2017-08-30T18:47:32.359Z,43.10
2017-08-30T18:50:00.098Z,43.00
2017-08-30T18:52:27.845Z,41.30
2017-08-30T18:54:55.578Z,43.10
2017-08-30T18:57:23.376Z,43.10
2017-08-30T18:59:51.191Z,43.20
2017-08-30T19:02:19.060Z,43.30
2017-08-30T19:04:46.793Z,43.30
2017-08-30T19:07:14.519Z,43.30
2017-08-30T19:09:42.405Z,43.40
2017-08-30T19:12:10.132Z,43.50
2017-08-30T19:14:37.888Z,43.30
2017-08-30T19:17:05.725Z,43.40
2017-08-30T19:19:33.562Z,43.20
2017-08-30T19:22:01.297Z,43.50
2017-08-30T19:24:29.161Z,43.60
2017-08-30T19:26:56.956Z,43.70
2017-08-30T19:29:24.709Z,43.80
2017-08-30T19:31:52.527Z,43.80
2017-08-30T19:34:20.284Z,43.80
2017-08-30T19:36:48.070Z,43.70
2017-08-30T19:39:15.894Z,43.50
2017-08-30T19:41:43.760Z,43.80
2017-08-30T19:44:11.511Z,43.80
2017-08-30T19:46:39.256Z,43.40
2017-08-30T19:49:06.982Z,43.90
2017-08-30T19:51:34.775Z,43.80
2017-08-30T19:54:02.532Z,43.80
2017-08-30T19:56:30.332Z,43.70
2017-08-30T19:58:58.085Z,43.70
2017-08-30T20:01:25.875Z,43.70
2017-08-30T20:03:53.668Z,43.60
2017-08-30T20:06:21.450Z,43.60
2017-08-30T20:08:49.217Z,43.70
2017-08-30T20:11:16.988Z,43.70
2017-08-30T20:13:44.784Z,43.40
2017-08-30T20:16:12.539Z,43.70
2017-08-30T20:18:40.315Z,43.10
2017-08-30T20:21:08.098Z,43.70
2017-08-30T20:23:35.904Z,43.60
2017-08-30T20:26:03.712Z,43.50
2017-08-30T20:28:31.506Z,42.90
2017-08-30T20:30:59.320Z,43.10
2017-08-30T20:33:27.101Z,43.80
2017-08-30T20:35:54.874Z,43.10
2017-08-30T20:38:22.653Z,43.20
2017-08-30T20:40:50.394Z,43.70
2017-08-30T20:43:18.127Z,43.20
2017-08-30T20:45:45.925Z,43.70
2017-08-30T20:48:13.696Z,43.70
2017-08-30T20:50:41.522Z,43.20
2017-08-30T20:53:09.391Z,43.50
2017-08-30T20:55:37.113Z,43.70
2017-08-30T20:58:04.827Z,43.90
2017-08-30T21:00:32.577Z,43.80
2017-08-30T21:03:00.364Z,43.70
2017-08-30T21:05:28.088Z,43.90
2017-08-30T21:07:55.819Z,43.80
2017-08-30T21:10:23.636Z,43.80
2017-08-30T21:12:51.368Z,43.30
2017-08-30T21:15:19.118Z,43.20
2017-08-30T21:17:46.852Z,43.90
2017-08-30T21:20:14.628Z,43.90
2017-08-30T21:22:42.453Z,43.40
2017-08-30T21:25:10.186Z,44.10
2017-08-30T21:27:38.036Z,44.30
2017-08-30T21:30:05.889Z,43.70
2017-08-30T21:32:33.661Z,45.10
2017-08-30T21:35:01.391Z,43.90
2017-08-30T21:37:29.179Z,44.30
2017-08-30T21:39:56.979Z,43.90
2017-08-30T21:42:24.723Z,44.10
2017-08-30T21:44:52.523Z,44.10
2017-08-30T21:47:20.328Z,43.70
2017-08-30T21:49:48.050Z,43.90
2017-08-30T21:52:15.856Z,43.90
2017-08-30T21:54:43.641Z,43.80
2017-08-30T21:57:11.357Z,43.20
2017-08-30T21:59:39.235Z,43.90
2017-08-30T22:02:07.040Z,43.70
2017-08-30T22:04:34.833Z,43.40
2017-08-30T22:07:02.666Z,44.30
2017-08-30T22:09:30.395Z,44.10
2017-08-30T22:11:58.137Z,43.70
2017-08-30T22:14:25.881Z,43.90
2017-08-30T22:16:53.650Z,44.30
2017-08-30T22:19:21.372Z,43.80
2017-08-30T22:21:49.153Z,44.00
2017-08-30T22:24:16.887Z,44.20
2017-08-30T22:26:44.682Z,43.90
2017-08-30T22:29:12.499Z,44.50
2017-08-30T22:31:40.253Z,44.20
2017-08-30T22:34:08.029Z,44.80
2017-08-30T22:36:35.805Z,44.80
2017-08-30T22:39:03.548Z,45.20
2017-08-30T22:41:31.335Z,45.00
2017-08-30T22:43:59.156Z,45.10
2017-08-30T22:46:26.872Z,44.80
2017-08-30T22:48:54.592Z,44.80
2017-08-30T22:51:22.479Z,44.40
2017-08-30T22:53:50.187Z,45.00
2017-08-30T22:56:17.957Z,45.50
2017-08-30T22:58:45.669Z,45.90
2017-08-30T23:01:13.387Z,45.80
2017-08-30T23:03:41.160Z,46.10
2017-08-30T23:06:09.442Z,46.00
2017-08-30T23:08:37.166Z,45.00
2017-08-30T23:11:04.972Z,45.50
2017-08-30T23:13:33.411Z,44.80
2017-08-30T23:16:01.120Z,45.50
2017-08-30T23:18:28.883Z,45.00
2017-08-30T23:20:56.666Z,45.40
2017-08-30T23:23:24.446Z,44.90
2017-08-30T23:25:52.232Z,45.20
2017-08-30T23:28:20.045Z,45.80
2017-08-30T23:30:47.779Z,46.00
2017-08-30T23:33:15.561Z,46.30
2017-08-30T23:35:43.301Z,46.40
2017-08-30T23:38:11.006Z,46.50
2017-08-30T23:40:38.730Z,46.40
2017-08-30T23:43:06.614Z,46.40
2017-08-30T23:45:34.412Z,46.70
2017-08-30T23:48:02.132Z,47.00
2017-08-30T23:50:29.927Z,46.80
2017-08-30T23:52:57.696Z,46.80
2017-08-30T23:55:25.463Z,47.10
2017-08-30T23:57:53.206Z,47.30
